Time;durP1;ratioP1;P1;durP2;ratioP2;P2;SDS_P1;SDS_P2;PMS_P1;PMS_P2;Temp;Humidity;BMP_temperature;BMP_pressure;BME280_temperature;BME280_humidity;BME280_pressure;Samples;Min_cycle;Max_cycle;Signal;HPM_P1;HPM_P2
2022/07/30 00:00:32;;;;;;;36.95;3.80;;;;;;;;;;5086618;28;20044;-69
2022/07/30 00:02:58;;;;;;;17.42;2.38;;;;;;;;;;5086933;28;20124;-72
2022/07/30 00:05:25;;;;;;;25.98;2.53;;;;;;;;;;5087270;28;20037;-74
2022/07/30 00:07:52;;;;;;;48.72;3.97;;;;;;;;;;5090392;28;20447;-74
2022/07/30 00:10:19;;;;;;;18.00;2.15;;;;;;;;;;5088510;28;20071;-74
2022/07/30 00:12:46;;;;;;;24.40;2.78;;;;;;;;;;5087126;28;20111;-73
2022/07/30 00:15:12;;;;;;;23.88;2.70;;;;;;;;;;5086956;28;20043;-73
2022/07/30 00:17:39;;;;;;;52.85;5.47;;;;;;;;;;5086519;28;20032;-73
2022/07/30 00:20:05;;;;;;;50.63;4.03;;;;;;;;;;5088789;28;20036;-76
2022/07/30 00:22:32;;;;;;;55.50;4.18;;;;;;;;;;5089911;28;20392;-76
2022/07/30 00:24:58;;;;;;;25.05;2.60;;;;;;;;;;5086410;28;20518;-77
2022/07/30 00:27:25;;;;;;;33.78;3.22;;;;;;;;;;5086746;28;20481;-77
2022/07/30 00:29:52;;;;;;;29.20;2.90;;;;;;;;;;5088012;28;20044;-82
2022/07/30 00:32:18;;;;;;;27.35;2.97;;;;;;;;;;5090070;28;20040;-85
2022/07/30 00:34:45;;;;;;;13.68;2.22;;;;;;;;;;5102199;28;20040;-84
2022/07/30 00:37:11;;;;;;;27.50;2.78;;;;;;;;;;5097839;28;20480;-84
2022/07/30 00:39:38;;;;;;;10.93;1.88;;;;;;;;;;5094534;28;20035;-83
2022/07/30 00:42:05;;;;;;;14.05;2.05;;;;;;;;;;5093648;28;20071;-82
2022/07/30 00:44:31;;;;;;;28.60;2.95;;;;;;;;;;5099313;28;20545;-82
2022/07/30 00:46:58;;;;;;;33.15;2.95;;;;;;;;;;5103766;28;20074;-83
2022/07/30 00:49:25;;;;;;;24.15;2.13;;;;;;;;;;5099261;28;20121;-77
2022/07/30 00:51:52;;;;;;;30.80;2.70;;;;;;;;;;5085562;28;20114;-76
2022/07/30 00:54:20;;;;;;;15.50;1.98;;;;;;;;;;5084788;28;20135;-74
2022/07/30 00:56:47;;;;;;;12.05;1.75;;;;;;;;;;5086746;28;20442;-75
2022/07/30 00:59:14;;;;;;;36.75;3.55;;;;;;;;;;5088861;28;20094;-75
2022/07/30 01:01:41;;;;;;;12.70;2.08;;;;;;;;;;5089831;28;20047;-75
2022/07/30 01:04:12;;;;;;;13.48;1.98;;;;;;;;;;5086708;28;20046;-74
2022/07/30 01:06:39;;;;;;;32.28;3.25;;;;;;;;;;5084647;28;20484;-74
2022/07/30 01:09:06;;;;;;;13.63;1.95;;;;;;;;;;5086919;28;20089;-74
2022/07/30 01:11:34;;;;;;;20.95;2.38;;;;;;;;;;5087895;28;20036;-75
2022/07/30 01:14:02;;;;;;;66.78;5.18;;;;;;;;;;5088565;28;20083;-75
2022/07/30 01:16:29;;;;;;;20.63;2.47;;;;;;;;;;5070675;28;20040;-74
2022/07/30 01:21:44;;;;;;;5.03;1.58;;;;;;;;;;5086447;28;20039;-73
2022/07/30 01:24:26;;;;;;;39.85;3.55;;;;;;;;;;5087679;28;20131;-74
2022/07/30 01:26:53;;;;;;;38.85;3.42;;;;;;;;;;5084990;28;20044;-72
2022/07/30 01:29:21;;;;;;;53.40;4.60;;;;;;;;;;5085630;28;20041;-73
2022/07/30 01:31:48;;;;;;;29.83;2.88;;;;;;;;;;5091052;28;20047;-70
2022/07/30 01:34:16;;;;;;;9.27;1.60;;;;;;;;;;5105043;28;20055;-71
2022/07/30 01:36:43;;;;;;;16.30;2.10;;;;;;;;;;5088440;28;20038;-77
2022/07/30 01:39:12;;;;;;;65.75;4.90;;;;;;;;;;5089623;28;20052;-79
2022/07/30 01:41:39;;;;;;;23.45;2.90;;;;;;;;;;5091377;28;20033;-80
2022/07/30 01:44:09;;;;;;;41.55;3.28;;;;;;;;;;5091982;28;20052;-77
2022/07/30 01:46:35;;;;;;;63.40;4.97;;;;;;;;;;5106786;28;20062;-76
2022/07/30 01:49:02;;;;;;;45.80;3.70;;;;;;;;;;5086629;28;20048;-74
2022/07/30 01:51:30;;;;;;;13.05;1.88;;;;;;;;;;5088519;28;20459;-75
2022/07/30 01:54:05;;;;;;;53.40;4.27;;;;;;;;;;5087678;28;20056;-75
2022/07/30 01:56:33;;;;;;;14.20;1.92;;;;;;;;;;5088616;28;20288;-76
2022/07/30 01:59:01;;;;;;;27.80;2.92;;;;;;;;;;5090368;28;20492;-74
2022/07/30 02:01:29;;;;;;;35.42;3.55;;;;;;;;;;5090779;28;20040;-72
2022/07/30 02:03:59;;;;;;;13.75;2.05;;;;;;;;;;5088249;28;20138;-72
2022/07/30 02:06:31;;;;;;;26.27;2.85;;;;;;;;;;5087650;28;20036;-72
2022/07/30 02:08:59;;;;;;;;;;;;;;;;;;5088363;28;20500;-69
2022/07/30 02:14:23;;;;;;;39.05;4.00;;;;;;;;;;5088018;28;20184;-70
2022/07/30 02:16:52;;;;;;;28.63;2.85;;;;;;;;;;5090020;28;20452;-70
2022/07/30 02:19:22;;;;;;;56.45;4.65;;;;;;;;;;5090399;28;20048;-69
2022/07/30 02:22:07;;;;;;;30.83;2.92;;;;;;;;;;5087683;28;20101;-70
2022/07/30 02:24:36;;;;;;;52.45;4.35;;;;;;;;;;5088497;28;20058;-70
2022/07/30 02:27:06;;;;;;;45.38;4.05;;;;;;;;;;5085624;28;20147;-69
2022/07/30 02:29:34;;;;;;;34.03;2.85;;;;;;;;;;5088581;28;20040;-69
2022/07/30 02:32:04;;;;;;;48.75;3.80;;;;;;;;;;5090074;28;20151;-69
2022/07/30 02:34:33;;;;;;;12.23;1.70;;;;;;;;;;5090326;28;20051;-69
2022/07/30 02:37:00;;;;;;;26.35;2.58;;;;;;;;;;5087251;28;20123;-70
2022/07/30 02:39:29;;;;;;;20.05;2.60;;;;;;;;;;5086872;28;20055;-70
2022/07/30 02:41:56;;;;;;;49.67;4.13;;;;;;;;;;5088279;28;20040;-70
2022/07/30 02:44:25;;;;;;;58.17;4.63;;;;;;;;;;5089349;28;20476;-70
2022/07/30 02:46:53;;;;;;;30.20;2.60;;;;;;;;;;5091538;28;20090;-69
2022/07/30 02:49:29;;;;;;;11.32;1.85;;;;;;;;;;5093103;28;20083;-74
2022/07/30 02:51:56;;;;;;;45.95;3.85;;;;;;;;;;5087599;28;20051;-74
2022/07/30 02:54:24;;;;;;;13.75;1.83;;;;;;;;;;5087974;28;20044;-74
2022/07/30 02:56:53;;;;;;;34.08;3.28;;;;;;;;;;5086687;28;20516;-76
2022/07/30 02:59:20;;;;;;;32.67;3.08;;;;;;;;;;5087300;28;20312;-77
2022/07/30 03:01:47;;;;;;;14.52;2.05;;;;;;;;;;5087535;28;20435;-77
2022/07/30 03:04:17;;;;;;;14.98;2.10;;;;;;;;;;5087723;28;20131;-74
2022/07/30 03:06:44;;;;;;;21.15;2.55;;;;;;;;;;5086530;28;20545;-74
2022/07/30 03:09:13;;;;;;;15.40;2.38;;;;;;;;;;5087723;28;20029;-75
2022/07/30 03:11:42;;;;;;;25.60;2.90;;;;;;;;;;5086876;28;20054;-77
2022/07/30 03:14:10;;;;;;;38.80;3.25;;;;;;;;;;5088474;28;21184;-76
2022/07/30 03:16:38;;;;;;;16.80;2.15;;;;;;;;;;5092007;28;20068;-73
2022/07/30 03:19:08;;;;;;;37.92;3.35;;;;;;;;;;5086200;28;20055;-72
2022/07/30 03:21:37;;;;;;;14.80;1.90;;;;;;;;;;5086748;28;20040;-72
2022/07/30 03:24:05;;;;;;;13.05;2.38;;;;;;;;;;5087685;28;20051;-73
2022/07/30 03:26:32;;;;;;;41.53;3.55;;;;;;;;;;5085944;28;20068;-75
2022/07/30 03:29:00;;;;;;;26.40;2.72;;;;;;;;;;5089494;28;20082;-72
2022/07/30 03:31:27;;;;;;;26.05;3.00;;;;;;;;;;5088409;28;20051;-71
2022/07/30 03:34:02;;;;;;;37.75;3.53;;;;;;;;;;5087753;28;20035;-71
2022/07/30 03:36:32;;;;;;;14.80;2.20;;;;;;;;;;5080233;28;20051;-72
2022/07/30 03:39:00;;;;;;;18.50;2.40;;;;;;;;;;5085838;28;20050;-73
2022/07/30 03:41:26;;;;;;;32.60;3.45;;;;;;;;;;5086279;28;20129;-74
2022/07/30 03:43:54;;;;;;;13.32;2.17;;;;;;;;;;5090690;28;20411;-75
2022/07/30 03:46:21;;;;;;;28.45;3.03;;;;;;;;;;5087034;28;20511;-75
2022/07/30 03:48:50;;;;;;;13.55;2.05;;;;;;;;;;5085884;28;20036;-75
2022/07/30 03:51:18;;;;;;;40.10;3.53;;;;;;;;;;5088145;28;20052;-73
2022/07/30 03:53:45;;;;;;;35.13;3.13;;;;;;;;;;5085435;28;20439;-74
2022/07/30 03:56:37;;;;;;;41.40;3.85;;;;;;;;;;5086245;28;20036;-73
2022/07/30 03:59:07;;;;;;;48.15;4.10;;;;;;;;;;5087979;28;20093;-74
2022/07/30 04:01:37;;;;;;;14.75;2.53;;;;;;;;;;5093038;28;20096;-79
2022/07/30 04:04:20;;;;;;;49.20;4.37;;;;;;;;;;5090089;28;20052;-79
2022/07/30 04:06:47;;;;;;;13.38;2.03;;;;;;;;;;5093319;28;20044;-76
2022/07/30 04:09:14;;;;;;;27.83;2.80;;;;;;;;;;5085332;28;20451;-71
2022/07/30 04:11:42;;;;;;;43.08;3.67;;;;;;;;;;5085320;28;20089;-71
2022/07/30 04:14:12;;;;;;;29.40;3.20;;;;;;;;;;5087441;28;20055;-73
2022/07/30 04:16:45;;;;;;;19.10;2.40;;;;;;;;;;5089628;28;20463;-73
2022/07/30 04:19:21;;;;;;;49.30;4.40;;;;;;;;;;5084610;28;20135;-75
2022/07/30 04:21:49;;;;;;;12.35;2.17;;;;;;;;;;5087677;28;20040;-74
2022/07/30 04:24:17;;;;;;;65.38;5.75;;;;;;;;;;5084457;28;20068;-75
2022/07/30 04:26:45;;;;;;;11.35;2.05;;;;;;;;;;5085292;28;20153;-77
2022/07/30 04:29:14;;;;;;;21.52;2.53;;;;;;;;;;5089087;28;20055;-75
2022/07/30 04:31:45;;;;;;;31.63;3.42;;;;;;;;;;5091131;28;20048;-71
2022/07/30 04:34:32;;;;;;;113.45;10.52;;;;;;;;;;5091446;28;20504;-69
2022/07/30 04:36:58;;;;;;;58.25;4.68;;;;;;;;;;5085604;28;20052;-72
2022/07/30 04:39:27;;;;;;;33.78;3.45;;;;;;;;;;5084974;28;20495;-64
2022/07/30 04:41:53;;;;;;;10.88;1.90;;;;;;;;;;5087048;28;20040;-63
2022/07/30 04:44:34;;;;;;;50.50;4.40;;;;;;;;;;5084997;28;20078;-63
2022/07/30 04:47:27;;;;;;;38.73;3.37;;;;;;;;;;5084910;28;20509;-64
2022/07/30 04:50:14;;;;;;;32.15;3.08;;;;;;;;;;5087778;28;20516;-64
2022/07/30 04:52:43;;;;;;;89.47;6.82;;;;;;;;;;5087739;28;20036;-66
2022/07/30 04:55:13;;;;;;;15.75;2.88;;;;;;;;;;5084328;28;20052;-65
2022/07/30 04:57:42;;;;;;;47.40;4.25;;;;;;;;;;5083956;28;20060;-65
2022/07/30 05:00:09;;;;;;;44.38;3.78;;;;;;;;;;5084291;28;20044;-65
2022/07/30 05:02:39;;;;;;;22.15;2.63;;;;;;;;;;5085522;28;20067;-66
2022/07/30 05:05:06;;;;;;;29.77;3.03;;;;;;;;;;5089590;28;20089;-65
2022/07/30 05:07:34;;;;;;;41.25;3.75;;;;;;;;;;5086714;28;20055;-65
2022/07/30 05:10:00;;;;;;;40.45;3.70;;;;;;;;;;5087118;28;20064;-65
2022/07/30 05:12:31;;;;;;;39.10;4.00;;;;;;;;;;5086759;28;20042;-65
2022/07/30 05:14:59;;;;;;;46.83;3.90;;;;;;;;;;5087207;28;20528;-65
2022/07/30 05:17:25;;;;;;;49.17;4.10;;;;;;;;;;5086931;28;20048;-65
2022/07/30 05:19:52;;;;;;;30.90;3.28;;;;;;;;;;5092242;28;20044;-65
2022/07/30 05:22:18;;;;;;;89.68;6.43;;;;;;;;;;5086525;28;20093;-65
2022/07/30 05:24:45;;;;;;;14.45;2.20;;;;;;;;;;5088112;28;20040;-65
2022/07/30 05:27:12;;;;;;;38.50;3.88;;;;;;;;;;5088713;28;20407;-65
2022/07/30 05:29:38;;;;;;;31.95;3.10;;;;;;;;;;5088867;28;20044;-64
2022/07/30 05:32:12;;;;;;;33.42;3.45;;;;;;;;;;5090368;28;20048;-66
2022/07/30 05:34:41;;;;;;;13.68;2.08;;;;;;;;;;5092280;28;20523;-65
2022/07/30 05:37:07;;;;;;;17.25;2.25;;;;;;;;;;5088649;28;20067;-65
2022/07/30 05:39:38;;;;;;;9.38;1.75;;;;;;;;;;5089858;28;20105;-66
2022/07/30 05:42:52;;;;;;;4.18;1.42;;;;;;;;;;5088561;28;20028;-65
2022/07/30 05:45:20;;;;;;;46.45;3.95;;;;;;;;;;5088351;28;20068;-66
2022/07/30 05:47:47;;;;;;;14.73;2.22;;;;;;;;;;5088394;28;20040;-67
2022/07/30 05:50:14;;;;;;;44.15;3.78;;;;;;;;;;5091517;28;20131;-67
2022/07/30 05:52:40;;;;;;;39.63;3.70;;;;;;;;;;5091364;28;20097;-69
2022/07/30 05:55:27;;;;;;;18.88;2.47;;;;;;;;;;5091107;28;20040;-63
2022/07/30 05:58:16;;;;;;;28.58;2.97;;;;;;;;;;5092106;28;20083;-65
2022/07/30 06:00:43;;;;;;;44.03;4.13;;;;;;;;;;5089461;28;20036;-65
2022/07/30 06:03:10;;;;;;;33.20;3.45;;;;;;;;;;5088049;28;20048;-66
2022/07/30 06:05:53;;;;;;;17.25;2.30;;;;;;;;;;5088214;28;20039;-66
2022/07/30 06:08:19;;;;;;;28.33;3.33;;;;;;;;;;5089794;28;20516;-67
2022/07/30 06:10:46;;;;;;;35.05;3.72;;;;;;;;;;5092242;28;20503;-67
2022/07/30 06:13:12;;;;;;;16.95;2.30;;;;;;;;;;5088052;28;20093;-64
2022/07/30 06:15:39;;;;;;;43.08;4.28;;;;;;;;;;5089108;28;20119;-65
2022/07/30 06:18:05;;;;;;;32.78;3.25;;;;;;;;;;5087928;28;20036;-65
2022/07/30 06:20:41;;;;;;;8.18;1.90;;;;;;;;;;5086185;28;20052;-62
2022/07/30 06:23:14;;;;;;;58.75;5.03;;;;;;;;;;5088294;28;20476;-64
2022/07/30 06:26:08;;;;;;;59.20;5.17;;;;;;;;;;5087125;28;20540;-63
2022/07/30 06:28:34;;;;;;;47.47;4.47;;;;;;;;;;5090397;28;20044;-63
2022/07/30 06:31:12;;;;;;;38.75;4.88;;;;;;;;;;5086251;28;20048;-62
2022/07/30 06:33:38;;;;;;;70.82;5.55;;;;;;;;;;5085223;28;20032;-63
2022/07/30 06:36:05;;;;;;;30.63;3.25;;;;;;;;;;5085970;28;20067;-62
2022/07/30 06:38:44;;;;;;;31.48;3.05;;;;;;;;;;5086110;28;20531;-62
2022/07/30 06:41:14;;;;;;;74.45;5.72;;;;;;;;;;5087394;28;20176;-62
2022/07/30 06:43:50;;;;;;;25.90;3.10;;;;;;;;;;5090622;28;20040;-62
2022/07/30 06:46:45;;;;;;;14.30;2.30;;;;;;;;;;5082965;28;20060;-63
2022/07/30 06:49:12;;;;;;;53.05;4.82;;;;;;;;;;5086866;28;20074;-62
2022/07/30 06:51:39;;;;;;;47.10;4.18;;;;;;;;;;5086267;28;20036;-63
2022/07/30 06:54:06;;;;;;;26.98;3.05;;;;;;;;;;5086470;28;20080;-62
2022/07/30 06:56:35;;;;;;;38.72;3.58;;;;;;;;;;5088146;28;20044;-62
2022/07/30 06:59:04;;;;;;;63.42;5.22;;;;;;;;;;5090268;28;20044;-62
2022/07/30 07:02:01;;;;;;;63.95;5.07;;;;;;;;;;5104673;28;20052;-63
2022/07/30 07:04:31;;;;;;;53.88;4.72;;;;;;;;;;5104722;28;20045;-62
2022/07/30 07:06:58;;;;;;;13.85;2.03;;;;;;;;;;5083669;28;20105;-63
2022/07/30 07:09:37;;;;;;;33.50;3.22;;;;;;;;;;5086792;28;20040;-63
2022/07/30 07:12:42;;;;;;;38.47;4.30;;;;;;;;;;5049672;28;20056;-63
2022/07/30 07:15:10;;;;;;;12.35;2.13;;;;;;;;;;5027055;28;20498;-62
2022/07/30 07:17:37;;;;;;;40.13;4.45;;;;;;;;;;5028220;28;20041;-63
2022/07/30 07:20:04;;;;;;;69.93;5.95;;;;;;;;;;5049081;28;20079;-63
2022/07/30 07:22:40;;;;;;;32.78;3.35;;;;;;;;;;5032994;28;20049;-62
2022/07/30 07:25:07;;;;;;;19.33;2.97;;;;;;;;;;5025020;28;20053;-62
2022/07/30 07:27:35;;;;;;;24.80;3.38;;;;;;;;;;5025124;28;20065;-62
2022/07/30 07:30:02;;;;;;;23.63;2.88;;;;;;;;;;5028053;28;20052;-62
2022/07/30 07:32:34;;;;;;;42.50;3.92;;;;;;;;;;5031482;28;20050;-63
2022/07/30 07:35:02;;;;;;;43.72;4.03;;;;;;;;;;5030099;28;20502;-61
2022/07/30 07:37:29;;;;;;;50.72;4.38;;;;;;;;;;5049329;28;20098;-61
2022/07/30 07:39:56;;;;;;;78.22;6.10;;;;;;;;;;5024492;28;20041;-61
2022/07/30 07:42:22;;;;;;;64.35;5.20;;;;;;;;;;5040548;28;20051;-61
2022/07/30 07:44:49;;;;;;;259.02;15.82;;;;;;;;;;5049106;28;20044;-62
2022/07/30 07:47:17;;;;;;;226.98;14.60;;;;;;;;;;5033326;28;23411;-63
2022/07/30 07:49:56;;;;;;;28.77;2.78;;;;;;;;;;5075286;28;20067;-62
2022/07/30 07:52:23;;;;;;;38.67;3.47;;;;;;;;;;5072497;28;20462;-61
2022/07/30 07:54:49;;;;;;;51.78;4.65;;;;;;;;;;5086957;28;20107;-61
2022/07/30 07:57:16;;;;;;;43.60;4.43;;;;;;;;;;5085583;28;20140;-62
2022/07/30 07:59:45;;;;;;;20.70;3.00;;;;;;;;;;5086191;28;20090;-62
2022/07/30 08:02:19;;;;;;;38.22;3.97;;;;;;;;;;5086183;28;20062;-63
2022/07/30 08:05:04;;;;;;;30.23;4.00;;;;;;;;;;5103687;28;20539;-62
2022/07/30 08:07:50;;;;;;;17.92;2.47;;;;;;;;;;5089847;28;20067;-63
2022/07/30 08:10:35;;;;;;;67.70;5.20;;;;;;;;;;5088876;28;20358;-62
2022/07/30 08:13:22;;;;;;;17.92;2.60;;;;;;;;;;5086906;28;20526;-62
2022/07/30 08:16:27;;;;;;;88.38;8.13;;;;;;;;;;5087517;28;20216;-63
2022/07/30 08:19:13;;;;;;;110.43;9.10;;;;;;;;;;5087102;28;20054;-62
2022/07/30 08:21:46;;;;;;;18.13;2.88;;;;;;;;;;5085815;28;20046;-63
2022/07/30 08:24:16;;;;;;;40.53;4.03;;;;;;;;;;5084956;28;20059;-63
2022/07/30 08:26:42;;;;;;;38.08;4.63;;;;;;;;;;5085291;28;20048;-63
2022/07/30 08:29:09;;;;;;;40.05;4.22;;;;;;;;;;5088140;28;20094;-62
2022/07/30 08:31:43;;;;;;;18.70;3.10;;;;;;;;;;5103071;28;20147;-66
2022/07/30 08:34:09;;;;;;;12.02;2.47;;;;;;;;;;5083778;28;20435;-62
2022/07/30 08:36:37;;;;;;;17.90;3.08;;;;;;;;;;5084958;28;20040;-64
2022/07/30 08:39:04;;;;;;;51.40;4.78;;;;;;;;;;5084760;28;20768;-65
2022/07/30 08:41:30;;;;;;;18.83;2.55;;;;;;;;;;5085696;28;20554;-64
2022/07/30 08:43:58;;;;;;;22.33;2.60;;;;;;;;;;5095323;28;21095;-64
2022/07/30 08:46:28;;;;;;;30.33;3.20;;;;;;;;;;5090947;28;20174;-64
2022/07/30 08:49:07;;;;;;;21.20;3.10;;;;;;;;;;5089185;28;20052;-64
2022/07/30 08:51:38;;;;;;;67.90;5.50;;;;;;;;;;5089060;28;20044;-64
2022/07/30 08:54:23;;;;;;;46.42;4.85;;;;;;;;;;5088807;28;20040;-64
2022/07/30 08:56:50;;;;;;;47.08;4.43;;;;;;;;;;5076381;28;20060;-64
2022/07/30 08:59:16;;;;;;;45.60;3.85;;;;;;;;;;5090499;28;20082;-64
2022/07/30 09:01:43;;;;;;;18.85;2.55;;;;;;;;;;5107964;28;20044;-64
2022/07/30 09:04:09;;;;;;;29.23;2.78;;;;;;;;;;5087815;28;20042;-64
2022/07/30 09:06:36;;;;;;;22.90;2.92;;;;;;;;;;5089196;28;20046;-64
2022/07/30 09:09:04;;;;;;;20.75;2.05;;;;;;;;;;5088864;28;20040;-65
2022/07/30 09:11:32;;;;;;;38.05;3.70;;;;;;;;;;5089307;28;20037;-64
2022/07/30 09:14:06;;;;;;;11.95;2.22;;;;;;;;;;5093096;28;20540;-64
2022/07/30 09:16:34;;;;;;;12.35;1.92;;;;;;;;;;5093217;28;20523;-64
2022/07/30 09:19:10;;;;;;;31.80;3.28;;;;;;;;;;5088892;28;20082;-64
2022/07/30 09:21:37;;;;;;;23.70;2.78;;;;;;;;;;5088953;28;20105;-64
2022/07/30 09:24:24;;;;;;;37.10;3.90;;;;;;;;;;5086647;28;20121;-64
2022/07/30 09:27:17;;;;;;;65.55;5.40;;;;;;;;;;5049592;28;20053;-64
2022/07/30 09:30:02;;;;;;;34.85;3.75;;;;;;;;;;5050838;28;20055;-64
2022/07/30 09:32:48;;;;;;;20.27;2.63;;;;;;;;;;5051399;28;20063;-64
2022/07/30 09:35:54;;;;;;;51.30;4.68;;;;;;;;;;4991303;28;20054;-62
2022/07/30 09:38:59;;;;;;;29.52;3.08;;;;;;;;;;4968612;28;20055;-61
2022/07/30 09:41:58;;;;;;;52.13;4.55;;;;;;;;;;4949217;28;20583;-64
2022/07/30 09:44:26;;;;;;;47.55;4.05;;;;;;;;;;4946139;29;20072;-64
2022/07/30 09:46:55;;;;;;;16.95;2.65;;;;;;;;;;4938293;29;20051;-62
2022/07/30 09:49:31;;;;;;;35.00;3.53;;;;;;;;;;4950469;29;20464;-62
2022/07/30 09:51:58;;;;;;;27.25;2.70;;;;;;;;;;4949305;28;20206;-62
2022/07/30 09:54:49;;;;;;;39.95;3.88;;;;;;;;;;4947233;29;20040;-62
2022/07/30 09:57:22;;;;;;;27.27;3.53;;;;;;;;;;4920560;29;20051;-62
2022/07/30 10:00:16;;;;;;;12.48;2.10;;;;;;;;;;4929253;29;20054;-65
2022/07/30 10:02:50;;;;;;;39.45;4.03;;;;;;;;;;4948554;29;20091;-62
2022/07/30 10:05:36;;;;;;;20.00;2.45;;;;;;;;;;4992329;28;20061;-62
2022/07/30 10:08:06;;;;;;;23.35;2.92;;;;;;;;;;4974208;28;20058;-62
2022/07/30 10:10:43;;;;;;;24.35;2.70;;;;;;;;;;5011893;28;20063;-62
2022/07/30 10:13:15;;;;;;;22.05;2.85;;;;;;;;;;5009983;28;20091;-62
2022/07/30 10:15:47;;;;;;;;;;;;;;;;;;5010544;28;20045;-62
2022/07/30 10:18:14;;;;;;;25.30;2.83;;;;;;;;;;5066408;28;20380;-62
2022/07/30 10:20:48;;;;;;;62.35;4.95;;;;;;;;;;5089174;28;20077;-62
2022/07/30 10:23:28;;;;;;;15.55;2.53;;;;;;;;;;5088038;28;20045;-62
2022/07/30 10:26:17;;;;;;;278.85;17.65;;;;;;;;;;5088996;28;20071;-62
2022/07/30 10:29:22;;;;;;;56.75;5.07;;;;;;;;;;5049831;28;20163;-62
2022/07/30 10:31:59;;;;;;;154.80;12.05;;;;;;;;;;5050940;28;20521;-62
2022/07/30 10:34:26;;;;;;;22.90;2.55;;;;;;;;;;5050580;28;20148;-62
2022/07/30 10:37:01;;;;;;;16.98;2.75;;;;;;;;;;5050609;28;20045;-62
2022/07/30 10:39:37;;;;;;;81.70;8.25;;;;;;;;;;5050151;28;20045;-62
2022/07/30 10:42:19;;;;;;;50.95;4.72;;;;;;;;;;5049783;28;20051;-62
2022/07/30 10:45:00;;;;;;;48.85;5.25;;;;;;;;;;5050401;28;20041;-62
2022/07/30 10:47:27;;;;;;;43.67;4.25;;;;;;;;;;5050463;28;20152;-62
2022/07/30 10:50:10;;;;;;;30.35;3.53;;;;;;;;;;5050416;28;20049;-62
2022/07/30 10:52:50;;;;;;;20.73;2.88;;;;;;;;;;5050341;28;20124;-62
2022/07/30 10:55:19;;;;;;;32.80;3.83;;;;;;;;;;5050090;28;20045;-62
2022/07/30 10:58:02;;;;;;;15.43;2.60;;;;;;;;;;5050043;28;20049;-62
2022/07/30 11:00:51;;;;;;;19.30;3.05;;;;;;;;;;5072961;28;20110;-62
2022/07/30 11:03:22;;;;;;;29.90;3.72;;;;;;;;;;5077584;28;20040;-63
2022/07/30 11:06:26;;;;;;;56.20;5.32;;;;;;;;;;5087116;28;20051;-63
2022/07/30 11:08:53;;;;;;;27.15;3.15;;;;;;;;;;5087949;28;20040;-63
2022/07/30 11:11:22;;;;;;;121.10;9.25;;;;;;;;;;5088796;28;20044;-62
2022/07/30 11:14:09;;;;;;;50.75;5.43;;;;;;;;;;5088592;28;20048;-63
2022/07/30 11:16:36;;;;;;;35.53;3.95;;;;;;;;;;5089961;28;20576;-64
2022/07/30 11:19:16;;;;;;;23.23;3.00;;;;;;;;;;5088080;28;20040;-63
2022/07/30 11:22:24;;;;;;;34.13;3.95;;;;;;;;;;5087980;28;20767;-63
2022/07/30 11:24:52;;;;;;;18.70;2.92;;;;;;;;;;5087560;28;20101;-63
2022/07/30 11:27:49;;;;;;;40.58;4.45;;;;;;;;;;5088241;28;20036;-63
2022/07/30 11:30:15;;;;;;;39.28;4.45;;;;;;;;;;5074943;28;20052;-62
2022/07/30 11:33:06;;;;;;;36.22;3.90;;;;;;;;;;5087797;28;20546;-63
2022/07/30 11:35:33;;;;;;;39.55;4.68;;;;;;;;;;5079475;28;20079;-62
2022/07/30 11:38:04;;;;;;;23.38;3.88;;;;;;;;;;5091945;28;20043;-63
2022/07/30 11:40:39;;;;;;;31.98;4.32;;;;;;;;;;5088538;28;20043;-63
2022/07/30 11:43:25;;;;;;;30.38;4.78;;;;;;;;;;5087945;28;20040;-62
2022/07/30 11:46:21;;;;;;;25.58;3.33;;;;;;;;;;5087767;28;20055;-63
2022/07/30 11:49:07;;;;;;;26.95;3.70;;;;;;;;;;5087626;28;20042;-62
2022/07/30 11:51:40;;;;;;;15.02;3.00;;;;;;;;;;5087545;28;20043;-62
2022/07/30 11:54:09;;;;;;;24.48;3.22;;;;;;;;;;5086744;28;20399;-61
2022/07/30 11:56:36;;;;;;;40.63;4.65;;;;;;;;;;5087707;28;20036;-61
2022/07/30 11:59:03;;;;;;;13.60;3.15;;;;;;;;;;5092096;28;20053;-63
2022/07/30 12:01:32;;;;;;;27.67;4.28;;;;;;;;;;5088241;28;20066;-63
2022/07/30 12:04:02;;;;;;;33.95;5.22;;;;;;;;;;5086982;28;20143;-62
2022/07/30 12:06:30;;;;;;;24.50;4.22;;;;;;;;;;5087110;28;20484;-64
2022/07/30 12:08:57;;;;;;;28.55;5.05;;;;;;;;;;5086809;28;20044;-62
2022/07/30 12:11:30;;;;;;;70.97;7.47;;;;;;;;;;5088066;28;20123;-61
2022/07/30 12:13:58;;;;;;;26.90;5.35;;;;;;;;;;5092386;28;20101;-63
2022/07/30 12:16:26;;;;;;;30.98;4.88;;;;;;;;;;5086592;28;20044;-62
2022/07/30 12:18:52;;;;;;;20.23;4.68;;;;;;;;;;5087246;28;20122;-62
2022/07/30 12:21:20;;;;;;;27.52;5.93;;;;;;;;;;5086960;28;20055;-62
2022/07/30 12:23:57;;;;;;;40.33;6.07;;;;;;;;;;5086803;28;20108;-62
2022/07/30 12:26:28;;;;;;;31.35;5.75;;;;;;;;;;5087825;28;20049;-62
2022/07/30 12:28:56;;;;;;;26.63;5.13;;;;;;;;;;5091551;28;20070;-62
2022/07/30 12:31:23;;;;;;;48.83;7.22;;;;;;;;;;5085328;28;20055;-61
2022/07/30 12:33:49;;;;;;;25.95;5.25;;;;;;;;;;5087046;28;20468;-61
2022/07/30 12:36:27;;;;;;;38.63;5.50;;;;;;;;;;5086845;28;20047;-61
2022/07/30 12:38:55;;;;;;;9.60;4.60;;;;;;;;;;5086645;28;20488;-61
2022/07/30 12:41:22;;;;;;;37.63;5.63;;;;;;;;;;5088584;28;20835;-60
2022/07/30 12:43:50;;;;;;;23.27;4.78;;;;;;;;;;5090264;28;20032;-60
2022/07/30 12:46:21;;;;;;;27.02;4.85;;;;;;;;;;5086592;28;20496;-60
2022/07/30 12:48:51;;;;;;;12.90;4.00;;;;;;;;;;5087126;28;20078;-60
2022/07/30 12:51:18;;;;;;;62.97;6.72;;;;;;;;;;5086062;28;20433;-60
2022/07/30 12:53:46;;;;;;;29.60;6.97;;;;;;;;;;5086566;28;20037;-61
2022/07/30 12:56:17;;;;;;;44.50;8.48;;;;;;;;;;5089631;28;20042;-61
2022/07/30 12:58:44;;;;;;;29.10;6.22;;;;;;;;;;5089762;28;20522;-61
2022/07/30 13:01:11;;;;;;;24.55;4.88;;;;;;;;;;5086234;28;20036;-60
2022/07/30 13:03:38;;;;;;;7.70;4.63;;;;;;;;;;5086866;28;20059;-60
2022/07/30 13:06:12;;;;;;;52.22;6.57;;;;;;;;;;5086178;28;20135;-59
2022/07/30 13:08:45;;;;;;;22.52;5.35;;;;;;;;;;5086321;28;20043;-60
2022/07/30 13:11:12;;;;;;;48.33;8.18;;;;;;;;;;5089985;28;20040;-60
2022/07/30 13:13:39;;;;;;;11.30;4.85;;;;;;;;;;5088461;28;20044;-60
2022/07/30 13:16:06;;;;;;;22.58;4.68;;;;;;;;;;5086637;28;20075;-60
2022/07/30 13:18:33;;;;;;;42.17;5.88;;;;;;;;;;5086257;28;20093;-61
2022/07/30 13:21:01;;;;;;;17.40;4.80;;;;;;;;;;5086418;28;20060;-60
2022/07/30 13:23:28;;;;;;;48.85;6.22;;;;;;;;;;5086990;28;20037;-60
2022/07/30 13:25:55;;;;;;;31.65;5.38;;;;;;;;;;5090562;28;20382;-60
2022/07/30 13:28:22;;;;;;;25.27;5.13;;;;;;;;;;5086102;28;20079;-60
2022/07/30 13:30:48;;;;;;;30.98;6.10;;;;;;;;;;5089869;28;20050;-60
2022/07/30 13:33:15;;;;;;;32.58;5.70;;;;;;;;;;5089772;28;20040;-60
2022/07/30 13:35:42;;;;;;;21.50;4.75;;;;;;;;;;5089862;28;20119;-60
2022/07/30 13:38:10;;;;;;;86.45;8.40;;;;;;;;;;5093316;28;20051;-60
2022/07/30 13:40:36;;;;;;;38.83;5.65;;;;;;;;;;5093990;28;20040;-61
2022/07/30 13:43:03;;;;;;;18.02;5.18;;;;;;;;;;5090025;28;20492;-61
2022/07/30 13:45:29;;;;;;;25.52;4.40;;;;;;;;;;5090028;28;20120;-61
2022/07/30 13:47:56;;;;;;;22.88;4.57;;;;;;;;;;5089728;28;20085;-61
2022/07/30 13:50:23;;;;;;;56.42;6.68;;;;;;;;;;5091042;28;20461;-62
2022/07/30 13:52:49;;;;;;;7.85;2.88;;;;;;;;;;5093068;28;20048;-62
2022/07/30 13:55:16;;;;;;;27.83;4.50;;;;;;;;;;5088130;28;20044;-62
2022/07/30 13:57:43;;;;;;;46.75;5.97;;;;;;;;;;5089427;28;20122;-60
2022/07/30 14:00:11;;;;;;;19.67;3.97;;;;;;;;;;5089642;28;20499;-61
2022/07/30 14:02:38;;;;;;;27.17;4.57;;;;;;;;;;5089634;28;20115;-63
2022/07/30 14:05:07;;;;;;;41.75;6.95;;;;;;;;;;5092441;28;20460;-63
2022/07/30 14:07:35;;;;;;;28.73;6.78;;;;;;;;;;5090351;28;20077;-63
2022/07/30 14:10:03;;;;;;;29.65;6.72;;;;;;;;;;5089125;28;20564;-63
2022/07/30 14:12:30;;;;;;;22.23;5.82;;;;;;;;;;5089441;28;20405;-63
2022/07/30 14:14:56;;;;;;;22.77;6.80;;;;;;;;;;5089404;28;20070;-63
2022/07/30 14:17:23;;;;;;;70.72;10.82;;;;;;;;;;5091124;28;20483;-63
2022/07/30 14:19:53;;;;;;;22.63;7.25;;;;;;;;;;5092385;28;20043;-64
2022/07/30 14:22:20;;;;;;;58.53;10.90;;;;;;;;;;5088550;28;20036;-65
2022/07/30 14:24:46;;;;;;;34.20;10.02;;;;;;;;;;5089277;28;20096;-65
2022/07/30 14:27:13;;;;;;;41.30;11.02;;;;;;;;;;5089014;28;20123;-64
2022/07/30 14:29:39;;;;;;;30.17;10.75;;;;;;;;;;5089096;28;20116;-63
2022/07/30 14:32:06;;;;;;;30.10;7.53;;;;;;;;;;5093234;28;20043;-62
2022/07/30 14:34:32;;;;;;;39.92;8.13;;;;;;;;;;5089433;28;20066;-63
2022/07/30 14:37:00;;;;;;;27.52;7.95;;;;;;;;;;5088982;28;20032;-62
2022/07/30 14:39:27;;;;;;;23.92;9.70;;;;;;;;;;5088315;28;20048;-62
2022/07/30 14:41:54;;;;;;;31.60;8.10;;;;;;;;;;5088785;28;20127;-62
2022/07/30 14:44:21;;;;;;;35.85;7.25;;;;;;;;;;5090671;28;20499;-62
2022/07/30 14:46:48;;;;;;;30.80;6.72;;;;;;;;;;5092198;28;20032;-62
2022/07/30 14:49:18;;;;;;;30.10;7.40;;;;;;;;;;5088313;28;20459;-62
2022/07/30 14:51:45;;;;;;;12.55;6.68;;;;;;;;;;5088476;28;20040;-62
2022/07/30 14:54:12;;;;;;;48.80;9.10;;;;;;;;;;5088061;28;20568;-62
2022/07/30 14:56:39;;;;;;;29.48;8.50;;;;;;;;;;5088624;28;20040;-62
2022/07/30 14:59:05;;;;;;;27.15;8.73;;;;;;;;;;5093002;28;20154;-63
2022/07/30 15:01:32;;;;;;;27.88;9.98;;;;;;;;;;5088571;28;20054;-61